sensor_id;sensor_type;location;lat;lon;timestamp;temperature;humidity
23783;DHT22;12071;50.850;4.446;2022-07-31T00:00:51;21.30;55.40
23783;DHT22;12071;50.850;4.446;2022-07-31T00:03:16;21.30;77.20
23783;DHT22;12071;50.850;4.446;2022-07-31T00:05:42;21.30;90.70
23783;DHT22;12071;50.850;4.446;2022-07-31T00:08:08;21.10;99.90
23783;DHT22;12071;50.850;4.446;2022-07-31T00:10:33;21.00;99.90
23783;DHT22;12071;50.850;4.446;2022-07-31T00:12:59;21.00;99.90
23783;DHT22;12071;50.850;4.446;2022-07-31T00:15:25;20.90;99.90
23783;DHT22;12071;50.850;4.446;2022-07-31T00:17:50;20.90;99.90
23783;DHT22;12071;50.850;4.446;2022-07-31T00:20:17;20.90;99.90
23783;DHT22;12071;50.850;4.446;2022-07-31T00:22:44;20.80;99.90
23783;DHT22;12071;50.850;4.446;2022-07-31T00:25:12;20.90;99.90
23783;DHT22;12071;50.850;4.446;2022-07-31T00:27:39;20.90;99.90
23783;DHT22;12071;50.850;4.446;2022-07-31T00:30:06;20.90;99.90
23783;DHT22;12071;50.850;4.446;2022-07-31T00:32:31;21.00;99.90
23783;DHT22;12071;50.850;4.446;2022-07-31T00:34:57;21.00;99.90
23783;DHT22;12071;50.850;4.446;2022-07-31T00:37:23;20.90;99.90
23783;DHT22;12071;50.850;4.446;2022-07-31T00:39:49;20.80;99.90
23783;DHT22;12071;50.850;4.446;2022-07-31T00:42:19;20.60;99.90
23783;DHT22;12071;50.850;4.446;2022-07-31T00:44:45;20.50;99.90
23783;DHT22;12071;50.850;4.446;2022-07-31T00:47:11;20.60;99.90
23783;DHT22;12071;50.850;4.446;2022-07-31T00:49:36;20.60;99.90
23783;DHT22;12071;50.850;4.446;2022-07-31T00:52:02;20.40;99.90
23783;DHT22;12071;50.850;4.446;2022-07-31T00:54:28;20.50;99.90
23783;DHT22;12071;50.850;4.446;2022-07-31T00:56:54;20.30;99.90
23783;DHT22;12071;50.850;4.446;2022-07-31T00:59:19;20.10;99.90
23783;DHT22;12071;50.850;4.446;2022-07-31T01:01:45;20.10;99.90
23783;DHT22;12071;50.850;4.446;2022-07-31T01:04:11;20.10;99.90
23783;DHT22;12071;50.850;4.446;2022-07-31T01:06:39;20.20;99.90
23783;DHT22;12071;50.850;4.446;2022-07-31T01:09:05;20.10;1.00
23783;DHT22;12071;50.850;4.446;2022-07-31T01:11:51;20.30;99.90
23783;DHT22;12071;50.850;4.446;2022-07-31T01:14:26;20.20;99.90
23783;DHT22;12071;50.850;4.446;2022-07-31T01:16:55;20.20;1.00
23783;DHT22;12071;50.850;4.446;2022-07-31T01:19:36;20.10;1.00
23783;DHT22;12071;50.850;4.446;2022-07-31T01:33:20;19.90;1.00
23783;DHT22;12071;50.850;4.446;2022-07-31T01:35:52;19.70;1.00
23783;DHT22;12071;50.850;4.446;2022-07-31T01:38:29;19.60;1.00
23783;DHT22;12071;50.850;4.446;2022-07-31T01:41:01;19.60;1.00
23783;DHT22;12071;50.850;4.446;2022-07-31T01:43:32;19.70;1.00
23783;DHT22;12071;50.850;4.446;2022-07-31T01:46:03;19.70;1.00
23783;DHT22;12071;50.850;4.446;2022-07-31T01:48:31;19.70;1.00
23783;DHT22;12071;50.850;4.446;2022-07-31T01:50:59;20.00;1.00
23783;DHT22;12071;50.850;4.446;2022-07-31T01:53:27;19.80;1.00
23783;DHT22;12071;50.850;4.446;2022-07-31T01:55:55;19.70;1.00
23783;DHT22;12071;50.850;4.446;2022-07-31T01:58:23;19.70;1.00
23783;DHT22;12071;50.850;4.446;2022-07-31T02:00:51;19.70;1.00
23783;DHT22;12071;50.850;4.446;2022-07-31T02:03:19;19.80;1.00
23783;DHT22;12071;50.850;4.446;2022-07-31T02:05:46;19.80;1.00
23783;DHT22;12071;50.850;4.446;2022-07-31T02:08:15;19.80;1.00
23783;DHT22;12071;50.850;4.446;2022-07-31T02:10:43;19.90;1.00
23783;DHT22;12071;50.850;4.446;2022-07-31T02:13:10;19.70;1.00
23783;DHT22;12071;50.850;4.446;2022-07-31T02:15:37;19.80;1.00
23783;DHT22;12071;50.850;4.446;2022-07-31T02:18:04;19.60;1.00
23783;DHT22;12071;50.850;4.446;2022-07-31T02:20:32;19.50;1.00
23783;DHT22;12071;50.850;4.446;2022-07-31T02:22:58;19.50;1.00
23783;DHT22;12071;50.850;4.446;2022-07-31T02:25:26;19.50;1.00
23783;DHT22;12071;50.850;4.446;2022-07-31T02:27:53;19.50;1.00
23783;DHT22;12071;50.850;4.446;2022-07-31T02:30:19;19.40;1.00
23783;DHT22;12071;50.850;4.446;2022-07-31T02:32:46;19.30;1.00
23783;DHT22;12071;50.850;4.446;2022-07-31T02:35:15;19.30;1.00
23783;DHT22;12071;50.850;4.446;2022-07-31T02:37:42;19.50;1.00
23783;DHT22;12071;50.850;4.446;2022-07-31T02:40:10;19.40;1.00
23783;DHT22;12071;50.850;4.446;2022-07-31T02:42:39;19.50;1.00
23783;DHT22;12071;50.850;4.446;2022-07-31T02:45:07;19.40;1.00
23783;DHT22;12071;50.850;4.446;2022-07-31T02:47:33;19.40;1.00
23783;DHT22;12071;50.850;4.446;2022-07-31T02:50:01;19.30;1.00
23783;DHT22;12071;50.850;4.446;2022-07-31T02:52:27;19.40;1.00
23783;DHT22;12071;50.850;4.446;2022-07-31T02:54:53;19.50;1.00
23783;DHT22;12071;50.850;4.446;2022-07-31T02:57:20;19.30;1.00
23783;DHT22;12071;50.850;4.446;2022-07-31T02:59:45;19.40;1.00
23783;DHT22;12071;50.850;4.446;2022-07-31T03:02:11;19.40;1.00
23783;DHT22;12071;50.850;4.446;2022-07-31T03:04:36;19.30;1.00
23783;DHT22;12071;50.850;4.446;2022-07-31T03:07:02;19.40;1.00
23783;DHT22;12071;50.850;4.446;2022-07-31T03:09:28;19.30;1.00
23783;DHT22;12071;50.850;4.446;2022-07-31T03:11:55;19.50;1.00
23783;DHT22;12071;50.850;4.446;2022-07-31T03:14:22;19.20;1.00
23783;DHT22;12071;50.850;4.446;2022-07-31T03:16:49;19.20;1.00
23783;DHT22;12071;50.850;4.446;2022-07-31T03:19:16;19.50;1.00
23783;DHT22;12071;50.850;4.446;2022-07-31T03:21:42;19.50;1.00
23783;DHT22;12071;50.850;4.446;2022-07-31T03:24:09;19.40;1.00
23783;DHT22;12071;50.850;4.446;2022-07-31T03:26:36;19.30;1.00
23783;DHT22;12071;50.850;4.446;2022-07-31T03:29:03;19.40;1.00
23783;DHT22;12071;50.850;4.446;2022-07-31T03:31:28;19.40;1.00
23783;DHT22;12071;50.850;4.446;2022-07-31T03:33:55;19.40;1.00
23783;DHT22;12071;50.850;4.446;2022-07-31T03:36:21;19.40;1.00
23783;DHT22;12071;50.850;4.446;2022-07-31T03:38:46;19.40;1.00
23783;DHT22;12071;50.850;4.446;2022-07-31T03:41:12;19.40;1.00
23783;DHT22;12071;50.850;4.446;2022-07-31T03:43:39;19.30;1.00
23783;DHT22;12071;50.850;4.446;2022-07-31T03:46:06;19.20;1.00
23783;DHT22;12071;50.850;4.446;2022-07-31T03:48:32;19.20;1.00
23783;DHT22;12071;50.850;4.446;2022-07-31T03:50:58;19.20;1.00
23783;DHT22;12071;50.850;4.446;2022-07-31T03:53:25;19.00;1.00
23783;DHT22;12071;50.850;4.446;2022-07-31T03:55:52;19.10;1.10
23783;DHT22;12071;50.850;4.446;2022-07-31T03:58:19;19.00;1.40
23783;DHT22;12071;50.850;4.446;2022-07-31T04:00:46;19.10;1.20
23783;DHT22;12071;50.850;4.446;2022-07-31T04:03:12;19.00;3.10
23783;DHT22;12071;50.850;4.446;2022-07-31T04:05:39;19.20;1.00
23783;DHT22;12071;50.850;4.446;2022-07-31T04:08:06;19.10;1.00
23783;DHT22;12071;50.850;4.446;2022-07-31T04:10:32;18.90;7.10
23783;DHT22;12071;50.850;4.446;2022-07-31T04:12:58;18.90;8.50
23783;DHT22;12071;50.850;4.446;2022-07-31T04:15:23;19.00;4.70
23783;DHT22;12071;50.850;4.446;2022-07-31T04:17:49;19.00;8.30
23783;DHT22;12071;50.850;4.446;2022-07-31T04:20:15;19.20;1.00
23783;DHT22;12071;50.850;4.446;2022-07-31T04:22:43;19.20;1.00
23783;DHT22;12071;50.850;4.446;2022-07-31T04:25:08;19.10;2.60
23783;DHT22;12071;50.850;4.446;2022-07-31T04:27:34;19.20;1.00
23783;DHT22;12071;50.850;4.446;2022-07-31T04:30:01;19.20;1.00
23783;DHT22;12071;50.850;4.446;2022-07-31T04:32:26;19.20;1.00
23783;DHT22;12071;50.850;4.446;2022-07-31T04:34:52;19.40;1.00
23783;DHT22;12071;50.850;4.446;2022-07-31T04:37:18;19.20;1.00
23783;DHT22;12071;50.850;4.446;2022-07-31T04:39:44;19.10;5.00
23783;DHT22;12071;50.850;4.446;2022-07-31T04:42:10;19.10;4.00
23783;DHT22;12071;50.850;4.446;2022-07-31T04:44:36;19.00;7.30
23783;DHT22;12071;50.850;4.446;2022-07-31T04:47:03;19.00;8.70
23783;DHT22;12071;50.850;4.446;2022-07-31T04:49:29;19.00;7.00
23783;DHT22;12071;50.850;4.446;2022-07-31T04:51:56;19.00;7.50
23783;DHT22;12071;50.850;4.446;2022-07-31T04:54:22;19.20;4.80
23783;DHT22;12071;50.850;4.446;2022-07-31T04:56:48;19.20;1.00
23783;DHT22;12071;50.850;4.446;2022-07-31T04:59:15;19.10;2.60
23783;DHT22;12071;50.850;4.446;2022-07-31T05:01:43;19.20;1.40
23783;DHT22;12071;50.850;4.446;2022-07-31T05:04:09;19.20;1.00
23783;DHT22;12071;50.850;4.446;2022-07-31T05:06:46;19.10;5.10
23783;DHT22;12071;50.850;4.446;2022-07-31T05:09:14;19.20;4.60
23783;DHT22;12071;50.850;4.446;2022-07-31T05:11:41;19.40;1.00
23783;DHT22;12071;50.850;4.446;2022-07-31T05:14:09;19.20;1.00
23783;DHT22;12071;50.850;4.446;2022-07-31T05:16:35;19.10;5.60
23783;DHT22;12071;50.850;4.446;2022-07-31T05:19:02;19.00;10.50
23783;DHT22;12071;50.850;4.446;2022-07-31T05:21:28;19.10;7.20
23783;DHT22;12071;50.850;4.446;2022-07-31T05:23:58;19.40;1.00
23783;DHT22;12071;50.850;4.446;2022-07-31T05:26:25;19.40;1.00
23783;DHT22;12071;50.850;4.446;2022-07-31T05:28:52;19.50;1.00
23783;DHT22;12071;50.850;4.446;2022-07-31T05:31:18;19.40;1.00
23783;DHT22;12071;50.850;4.446;2022-07-31T05:33:46;19.20;1.90
23783;DHT22;12071;50.850;4.446;2022-07-31T05:36:13;19.10;7.80
23783;DHT22;12071;50.850;4.446;2022-07-31T05:38:39;19.10;11.10
23783;DHT22;12071;50.850;4.446;2022-07-31T05:41:05;19.20;6.10
23783;DHT22;12071;50.850;4.446;2022-07-31T05:43:30;19.20;4.80
23783;DHT22;12071;50.850;4.446;2022-07-31T05:45:56;19.30;3.40
23783;DHT22;12071;50.850;4.446;2022-07-31T05:48:22;19.00;9.00
23783;DHT22;12071;50.850;4.446;2022-07-31T05:50:49;19.10;10.50
23783;DHT22;12071;50.850;4.446;2022-07-31T05:53:15;19.20;6.40
23783;DHT22;12071;50.850;4.446;2022-07-31T05:55:46;19.10;11.30
23783;DHT22;12071;50.850;4.446;2022-07-31T05:58:12;19.10;11.60
23783;DHT22;12071;50.850;4.446;2022-07-31T06:00:41;19.20;6.00
23783;DHT22;12071;50.850;4.446;2022-07-31T06:03:06;19.10;7.40
23783;DHT22;12071;50.850;4.446;2022-07-31T06:05:32;19.30;3.60
23783;DHT22;12071;50.850;4.446;2022-07-31T06:07:59;19.30;6.60
23783;DHT22;12071;50.850;4.446;2022-07-31T06:10:25;19.30;6.20
23783;DHT22;12071;50.850;4.446;2022-07-31T06:12:50;19.40;3.20
23783;DHT22;12071;50.850;4.446;2022-07-31T06:15:16;19.40;3.60
23783;DHT22;12071;50.850;4.446;2022-07-31T06:17:43;19.50;1.00
23783;DHT22;12071;50.850;4.446;2022-07-31T06:20:10;19.50;1.00
23783;DHT22;12071;50.850;4.446;2022-07-31T06:22:36;19.40;1.10
23783;DHT22;12071;50.850;4.446;2022-07-31T06:25:05;19.40;1.20
23783;DHT22;12071;50.850;4.446;2022-07-31T06:27:33;19.40;1.00
23783;DHT22;12071;50.850;4.446;2022-07-31T06:29:58;19.30;4.00
23783;DHT22;12071;50.850;4.446;2022-07-31T06:32:24;19.30;6.00
23783;DHT22;12071;50.850;4.446;2022-07-31T06:34:49;19.50;1.00
23783;DHT22;12071;50.850;4.446;2022-07-31T06:37:15;19.60;1.00
23783;DHT22;12071;50.850;4.446;2022-07-31T06:39:41;19.70;1.00
23783;DHT22;12071;50.850;4.446;2022-07-31T06:42:07;19.70;1.00
23783;DHT22;12071;50.850;4.446;2022-07-31T06:44:33;19.90;1.00
23783;DHT22;12071;50.850;4.446;2022-07-31T06:46:59;19.90;1.00
23783;DHT22;12071;50.850;4.446;2022-07-31T06:49:26;20.00;1.00
23783;DHT22;12071;50.850;4.446;2022-07-31T06:51:52;20.20;1.00
23783;DHT22;12071;50.850;4.446;2022-07-31T06:54:17;20.40;1.00
23783;DHT22;12071;50.850;4.446;2022-07-31T06:56:43;20.40;1.00
23783;DHT22;12071;50.850;4.446;2022-07-31T06:59:09;20.50;1.00
23783;DHT22;12071;50.850;4.446;2022-07-31T07:01:35;20.30;1.00
23783;DHT22;12071;50.850;4.446;2022-07-31T07:04:00;20.30;1.00
23783;DHT22;12071;50.850;4.446;2022-07-31T07:06:26;20.30;1.00
23783;DHT22;12071;50.850;4.446;2022-07-31T07:08:52;20.50;1.00
23783;DHT22;12071;50.850;4.446;2022-07-31T07:11:19;20.60;1.00
23783;DHT22;12071;50.850;4.446;2022-07-31T07:13:44;20.40;1.00
23783;DHT22;12071;50.850;4.446;2022-07-31T07:16:10;20.50;1.00
23783;DHT22;12071;50.850;4.446;2022-07-31T07:18:36;20.40;1.00
23783;DHT22;12071;50.850;4.446;2022-07-31T07:21:02;20.40;1.00
23783;DHT22;12071;50.850;4.446;2022-07-31T07:23:29;20.50;1.00
23783;DHT22;12071;50.850;4.446;2022-07-31T07:25:54;20.60;1.00
23783;DHT22;12071;50.850;4.446;2022-07-31T07:28:20;20.60;1.00
23783;DHT22;12071;50.850;4.446;2022-07-31T07:30:46;20.50;1.00
23783;DHT22;12071;50.850;4.446;2022-07-31T07:33:11;20.50;1.00
23783;DHT22;12071;50.850;4.446;2022-07-31T07:35:37;20.60;1.00
23783;DHT22;12071;50.850;4.446;2022-07-31T07:38:04;20.50;1.00
23783;DHT22;12071;50.850;4.446;2022-07-31T07:40:29;20.50;1.00
23783;DHT22;12071;50.850;4.446;2022-07-31T07:42:55;20.50;1.00
23783;DHT22;12071;50.850;4.446;2022-07-31T07:45:21;20.70;1.00
23783;DHT22;12071;50.850;4.446;2022-07-31T07:47:47;20.70;1.00
23783;DHT22;12071;50.850;4.446;2022-07-31T07:50:13;20.80;1.00
23783;DHT22;12071;50.850;4.446;2022-07-31T07:52:40;21.00;1.00
23783;DHT22;12071;50.850;4.446;2022-07-31T07:55:06;21.00;1.00
23783;DHT22;12071;50.850;4.446;2022-07-31T07:57:32;20.80;1.00
23783;DHT22;12071;50.850;4.446;2022-07-31T08:00:03;20.80;1.00
23783;DHT22;12071;50.850;4.446;2022-07-31T08:02:30;21.00;1.00
23783;DHT22;12071;50.850;4.446;2022-07-31T08:04:56;21.00;1.00
23783;DHT22;12071;50.850;4.446;2022-07-31T08:07:32;21.10;1.00
23783;DHT22;12071;50.850;4.446;2022-07-31T08:09:59;21.20;1.00
23783;DHT22;12071;50.850;4.446;2022-07-31T08:12:26;21.40;1.00
23783;DHT22;12071;50.850;4.446;2022-07-31T08:14:53;21.40;1.00
23783;DHT22;12071;50.850;4.446;2022-07-31T08:17:19;21.60;1.00
23783;DHT22;12071;50.850;4.446;2022-07-31T08:19:44;21.60;1.00
23783;DHT22;12071;50.850;4.446;2022-07-31T08:22:10;21.70;1.00
23783;DHT22;12071;50.850;4.446;2022-07-31T08:24:36;21.70;1.00
23783;DHT22;12071;50.850;4.446;2022-07-31T08:27:01;21.80;1.00
23783;DHT22;12071;50.850;4.446;2022-07-31T08:29:45;21.90;1.00
23783;DHT22;12071;50.850;4.446;2022-07-31T08:32:12;22.10;1.00
23783;DHT22;12071;50.850;4.446;2022-07-31T08:34:38;22.30;1.00
23783;DHT22;12071;50.850;4.446;2022-07-31T08:37:04;22.30;1.00
23783;DHT22;12071;50.850;4.446;2022-07-31T08:39:31;22.40;1.00
23783;DHT22;12071;50.850;4.446;2022-07-31T08:41:57;22.30;1.00
23783;DHT22;12071;50.850;4.446;2022-07-31T08:44:23;22.20;1.00
23783;DHT22;12071;50.850;4.446;2022-07-31T08:46:50;22.30;1.00
23783;DHT22;12071;50.850;4.446;2022-07-31T08:49:20;22.40;1.00
23783;DHT22;12071;50.850;4.446;2022-07-31T08:51:49;22.40;99.90
23783;DHT22;12071;50.850;4.446;2022-07-31T08:54:15;22.60;99.90
23783;DHT22;12071;50.850;4.446;2022-07-31T08:56:41;22.60;99.90
23783;DHT22;12071;50.850;4.446;2022-07-31T08:59:07;22.50;99.90
23783;DHT22;12071;50.850;4.446;2022-07-31T09:01:34;22.60;99.90
23783;DHT22;12071;50.850;4.446;2022-07-31T09:04:00;22.70;99.90
23783;DHT22;12071;50.850;4.446;2022-07-31T09:06:26;22.70;99.90
23783;DHT22;12071;50.850;4.446;2022-07-31T09:08:53;22.70;99.90
23783;DHT22;12071;50.850;4.446;2022-07-31T09:11:20;22.80;99.90
23783;DHT22;12071;50.850;4.446;2022-07-31T09:13:57;23.00;99.90
23783;DHT22;12071;50.850;4.446;2022-07-31T09:16:23;23.10;99.90
23783;DHT22;12071;50.850;4.446;2022-07-31T09:18:55;23.10;99.90
23783;DHT22;12071;50.850;4.446;2022-07-31T09:21:21;23.00;99.90
23783;DHT22;12071;50.850;4.446;2022-07-31T09:23:47;23.30;99.90
23783;DHT22;12071;50.850;4.446;2022-07-31T09:26:13;23.20;99.90
23783;DHT22;12071;50.850;4.446;2022-07-31T09:28:42;23.30;99.90
23783;DHT22;12071;50.850;4.446;2022-07-31T09:31:09;23.70;99.90
23783;DHT22;12071;50.850;4.446;2022-07-31T09:33:35;23.40;99.90
23783;DHT22;12071;50.850;4.446;2022-07-31T09:36:03;23.50;99.90
23783;DHT22;12071;50.850;4.446;2022-07-31T09:38:35;23.60;99.90
23783;DHT22;12071;50.850;4.446;2022-07-31T09:41:15;23.80;99.90
23783;DHT22;12071;50.850;4.446;2022-07-31T09:44:04;23.90;99.90
23783;DHT22;12071;50.850;4.446;2022-07-31T09:46:44;23.90;99.90
23783;DHT22;12071;50.850;4.446;2022-07-31T09:49:09;24.10;99.90
23783;DHT22;12071;50.850;4.446;2022-07-31T09:51:41;24.20;46.60
23783;DHT22;12071;50.850;4.446;2022-07-31T09:54:17;24.30;47.60
23783;DHT22;12071;50.850;4.446;2022-07-31T09:56:43;24.10;54.90
23783;DHT22;12071;50.850;4.446;2022-07-31T09:59:11;24.10;59.30
23783;DHT22;12071;50.850;4.446;2022-07-31T10:01:36;24.40;1.00
23783;DHT22;12071;50.850;4.446;2022-07-31T10:04:04;24.60;1.00
23783;DHT22;12071;50.850;4.446;2022-07-31T10:06:33;24.50;1.00
23783;DHT22;12071;50.850;4.446;2022-07-31T10:09:02;24.60;1.00
23783;DHT22;12071;50.850;4.446;2022-07-31T10:11:29;24.50;1.00
23783;DHT22;12071;50.850;4.446;2022-07-31T10:13:59;24.40;1.00
23783;DHT22;12071;50.850;4.446;2022-07-31T10:16:26;24.20;1.00
23783;DHT22;12071;50.850;4.446;2022-07-31T10:18:58;24.20;1.00
23783;DHT22;12071;50.850;4.446;2022-07-31T10:21:31;24.00;1.00
23783;DHT22;12071;50.850;4.446;2022-07-31T10:23:59;24.20;1.00
23783;DHT22;12071;50.850;4.446;2022-07-31T10:26:26;24.40;1.00
23783;DHT22;12071;50.850;4.446;2022-07-31T10:28:53;24.80;1.00
23783;DHT22;12071;50.850;4.446;2022-07-31T10:31:19;25.00;99.90
23783;DHT22;12071;50.850;4.446;2022-07-31T10:33:45;24.80;99.90
23783;DHT22;12071;50.850;4.446;2022-07-31T10:36:18;24.60;1.00
23783;DHT22;12071;50.850;4.446;2022-07-31T10:39:00;24.70;1.00
23783;DHT22;12071;50.850;4.446;2022-07-31T10:44:34;24.70;1.00
23783;DHT22;12071;50.850;4.446;2022-07-31T10:47:14;24.50;1.00
23783;DHT22;12071;50.850;4.446;2022-07-31T10:49:46;24.80;99.90
23783;DHT22;12071;50.850;4.446;2022-07-31T10:52:13;25.10;99.90
23783;DHT22;12071;50.850;4.446;2022-07-31T10:54:45;25.00;99.90
23783;DHT22;12071;50.850;4.446;2022-07-31T10:57:22;24.70;1.00
23783;DHT22;12071;50.850;4.446;2022-07-31T10:59:48;24.90;1.00
23783;DHT22;12071;50.850;4.446;2022-07-31T11:02:13;25.10;99.90
23783;DHT22;12071;50.850;4.446;2022-07-31T11:04:50;25.00;99.90
23783;DHT22;12071;50.850;4.446;2022-07-31T11:07:17;25.00;99.90
23783;DHT22;12071;50.850;4.446;2022-07-31T11:09:45;25.30;99.90
23783;DHT22;12071;50.850;4.446;2022-07-31T11:12:18;25.40;99.90
23783;DHT22;12071;50.850;4.446;2022-07-31T11:14:44;25.30;99.90
23783;DHT22;12071;50.850;4.446;2022-07-31T11:17:10;25.10;99.90
23783;DHT22;12071;50.850;4.446;2022-07-31T11:19:40;24.90;99.90
23783;DHT22;12071;50.850;4.446;2022-07-31T11:22:11;24.60;1.00
23783;DHT22;12071;50.850;4.446;2022-07-31T11:24:37;24.60;1.00
23783;DHT22;12071;50.850;4.446;2022-07-31T11:27:03;24.90;1.00
23783;DHT22;12071;50.850;4.446;2022-07-31T11:29:30;25.10;99.90
23783;DHT22;12071;50.850;4.446;2022-07-31T11:32:15;25.10;99.90
23783;DHT22;12071;50.850;4.446;2022-07-31T11:34:50;25.10;99.90
23783;DHT22;12071;50.850;4.446;2022-07-31T11:37:23;25.00;99.90
23783;DHT22;12071;50.850;4.446;2022-07-31T11:39:49;25.00;99.90
23783;DHT22;12071;50.850;4.446;2022-07-31T11:42:16;25.00;1.00
23783;DHT22;12071;50.850;4.446;2022-07-31T11:44:41;24.70;1.00
23783;DHT22;12071;50.850;4.446;2022-07-31T11:47:08;24.80;1.00
23783;DHT22;12071;50.850;4.446;2022-07-31T11:49:34;25.00;99.90
23783;DHT22;12071;50.850;4.446;2022-07-31T11:52:03;25.30;99.90
23783;DHT22;12071;50.850;4.446;2022-07-31T11:54:29;25.30;99.90
23783;DHT22;12071;50.850;4.446;2022-07-31T11:56:55;25.30;99.90
23783;DHT22;12071;50.850;4.446;2022-07-31T11:59:38;25.40;99.90
23783;DHT22;12071;50.850;4.446;2022-07-31T12:02:21;25.30;99.90
23783;DHT22;12071;50.850;4.446;2022-07-31T12:04:48;25.50;99.90
23783;DHT22;12071;50.850;4.446;2022-07-31T12:07:13;25.40;99.90
23783;DHT22;12071;50.850;4.446;2022-07-31T12:09:39;25.30;99.90
23783;DHT22;12071;50.850;4.446;2022-07-31T12:12:06;25.40;99.90
23783;DHT22;12071;50.850;4.446;2022-07-31T12:14:34;25.40;99.90
23783;DHT22;12071;50.850;4.446;2022-07-31T12:17:01;25.40;99.90
23783;DHT22;12071;50.850;4.446;2022-07-31T12:19:28;25.50;99.90
23783;DHT22;12071;50.850;4.446;2022-07-31T12:21:55;25.30;99.90
23783;DHT22;12071;50.850;4.446;2022-07-31T12:24:21;25.50;99.90
23783;DHT22;12071;50.850;4.446;2022-07-31T12:26:55;25.70;99.90
23783;DHT22;12071;50.850;4.446;2022-07-31T12:29:31;25.80;99.90
23783;DHT22;12071;50.850;4.446;2022-07-31T12:32:00;25.90;99.90
23783;DHT22;12071;50.850;4.446;2022-07-31T12:34:30;26.00;99.90
23783;DHT22;12071;50.850;4.446;2022-07-31T12:37:01;26.00;99.90
23783;DHT22;12071;50.850;4.446;2022-07-31T12:39:30;25.80;99.90
23783;DHT22;12071;50.850;4.446;2022-07-31T12:41:57;25.90;99.90
23783;DHT22;12071;50.850;4.446;2022-07-31T12:44:23;25.60;99.90
23783;DHT22;12071;50.850;4.446;2022-07-31T12:46:48;25.80;1.00
23783;DHT22;12071;50.850;4.446;2022-07-31T12:49:14;25.90;1.00
23783;DHT22;12071;50.850;4.446;2022-07-31T12:51:40;25.90;99.90
23783;DHT22;12071;50.850;4.446;2022-07-31T12:54:07;25.80;99.90
23783;DHT22;12071;50.850;4.446;2022-07-31T12:56:35;25.70;99.90
23783;DHT22;12071;50.850;4.446;2022-07-31T12:59:00;25.80;99.90
23783;DHT22;12071;50.850;4.446;2022-07-31T13:01:27;26.00;99.90
23783;DHT22;12071;50.850;4.446;2022-07-31T13:03:53;26.40;99.90
23783;DHT22;12071;50.850;4.446;2022-07-31T13:06:21;26.20;99.90
23783;DHT22;12071;50.850;4.446;2022-07-31T13:08:47;26.60;99.90
23783;DHT22;12071;50.850;4.446;2022-07-31T13:11:13;26.60;99.90
23783;DHT22;12071;50.850;4.446;2022-07-31T13:13:39;26.50;99.90
23783;DHT22;12071;50.850;4.446;2022-07-31T13:16:05;26.50;50.10
23783;DHT22;12071;50.850;4.446;2022-07-31T13:18:31;26.10;99.90
23783;DHT22;12071;50.850;4.446;2022-07-31T13:20:57;26.00;99.90
23783;DHT22;12071;50.850;4.446;2022-07-31T13:23:22;25.60;99.90
23783;DHT22;12071;50.850;4.446;2022-07-31T13:25:48;25.60;99.90
23783;DHT22;12071;50.850;4.446;2022-07-31T13:28:14;25.60;99.90
23783;DHT22;12071;50.850;4.446;2022-07-31T13:30:39;25.70;99.90
23783;DHT22;12071;50.850;4.446;2022-07-31T13:33:05;26.20;99.90
23783;DHT22;12071;50.850;4.446;2022-07-31T13:35:32;26.80;26.10
23783;DHT22;12071;50.850;4.446;2022-07-31T13:37:57;27.40;1.00
23783;DHT22;12071;50.850;4.446;2022-07-31T13:40:24;28.10;99.90
23783;DHT22;12071;50.850;4.446;2022-07-31T13:43:08;27.60;99.90
23783;DHT22;12071;50.850;4.446;2022-07-31T13:45:34;27.70;99.90
23783;DHT22;12071;50.850;4.446;2022-07-31T13:48:00;27.20;99.90
23783;DHT22;12071;50.850;4.446;2022-07-31T13:50:25;26.60;1.00
23783;DHT22;12071;50.850;4.446;2022-07-31T13:52:51;26.40;1.00
23783;DHT22;12071;50.850;4.446;2022-07-31T13:55:17;26.10;99.90
23783;DHT22;12071;50.850;4.446;2022-07-31T13:57:42;26.20;99.90
23783;DHT22;12071;50.850;4.446;2022-07-31T14:00:08;26.30;81.40
23783;DHT22;12071;50.850;4.446;2022-07-31T14:02:34;26.10;97.20
23783;DHT22;12071;50.850;4.446;2022-07-31T14:05:00;25.90;99.90
23783;DHT22;12071;50.850;4.446;2022-07-31T14:07:25;25.80;99.90
23783;DHT22;12071;50.850;4.446;2022-07-31T14:09:51;25.80;99.90
23783;DHT22;12071;50.850;4.446;2022-07-31T14:12:16;26.00;99.90
23783;DHT22;12071;50.850;4.446;2022-07-31T14:14:42;26.50;51.50
23783;DHT22;12071;50.850;4.446;2022-07-31T14:17:08;26.50;1.00
23783;DHT22;12071;50.850;4.446;2022-07-31T14:19:33;26.10;49.60
23783;DHT22;12071;50.850;4.446;2022-07-31T14:21:59;25.60;99.90
23783;DHT22;12071;50.850;4.446;2022-07-31T14:24:25;25.40;99.90
23783;DHT22;12071;50.850;4.446;2022-07-31T14:26:50;25.50;99.90
23783;DHT22;12071;50.850;4.446;2022-07-31T14:29:16;25.60;99.90
23783;DHT22;12071;50.850;4.446;2022-07-31T14:31:42;25.40;99.90
23783;DHT22;12071;50.850;4.446;2022-07-31T14:34:07;25.30;99.90
23783;DHT22;12071;50.850;4.446;2022-07-31T14:36:33;25.60;99.90
23783;DHT22;12071;50.850;4.446;2022-07-31T14:38:58;25.90;99.90
23783;DHT22;12071;50.850;4.446;2022-07-31T14:41:24;26.20;99.90
23783;DHT22;12071;50.850;4.446;2022-07-31T14:43:50;26.20;62.10
23783;DHT22;12071;50.850;4.446;2022-07-31T14:46:15;26.20;52.80
23783;DHT22;12071;50.850;4.446;2022-07-31T14:48:41;26.30;9.20
23783;DHT22;12071;50.850;4.446;2022-07-31T14:51:06;26.10;13.70
23783;DHT22;12071;50.850;4.446;2022-07-31T14:53:32;26.20;1.00
23783;DHT22;12071;50.850;4.446;2022-07-31T14:55:58;26.60;1.00
23783;DHT22;12071;50.850;4.446;2022-07-31T14:58:24;26.30;1.00
23783;DHT22;12071;50.850;4.446;2022-07-31T15:00:50;26.10;1.00
23783;DHT22;12071;50.850;4.446;2022-07-31T15:03:16;26.30;1.00
23783;DHT22;12071;50.850;4.446;2022-07-31T15:05:41;26.20;1.00
23783;DHT22;12071;50.850;4.446;2022-07-31T15:08:07;26.10;1.00
23783;DHT22;12071;50.850;4.446;2022-07-31T15:10:32;25.60;1.00
23783;DHT22;12071;50.850;4.446;2022-07-31T15:12:58;25.50;93.00
23783;DHT22;12071;50.850;4.446;2022-07-31T15:15:24;25.40;99.90
23783;DHT22;12071;50.850;4.446;2022-07-31T15:17:50;25.50;99.90
23783;DHT22;12071;50.850;4.446;2022-07-31T15:20:15;25.50;99.90
23783;DHT22;12071;50.850;4.446;2022-07-31T15:22:41;25.50;99.90
23783;DHT22;12071;50.850;4.446;2022-07-31T15:25:07;25.50;99.90
23783;DHT22;12071;50.850;4.446;2022-07-31T15:27:33;25.20;99.90
23783;DHT22;12071;50.850;4.446;2022-07-31T15:29:59;25.10;99.90
23783;DHT22;12071;50.850;4.446;2022-07-31T15:32:25;25.10;99.90
23783;DHT22;12071;50.850;4.446;2022-07-31T15:34:50;25.10;99.90
23783;DHT22;12071;50.850;4.446;2022-07-31T15:37:16;25.00;99.90
23783;DHT22;12071;50.850;4.446;2022-07-31T15:39:41;25.10;99.90
23783;DHT22;12071;50.850;4.446;2022-07-31T15:42:07;25.10;99.90
23783;DHT22;12071;50.850;4.446;2022-07-31T15:44:32;25.00;99.90
23783;DHT22;12071;50.850;4.446;2022-07-31T15:46:58;24.90;99.90
23783;DHT22;12071;50.850;4.446;2022-07-31T15:49:24;24.90;99.90
23783;DHT22;12071;50.850;4.446;2022-07-31T15:51:49;24.80;99.90
23783;DHT22;12071;50.850;4.446;2022-07-31T15:54:15;24.80;99.90